Time;durP1;ratioP1;P1;durP2;ratioP2;P2;SDS_P1;SDS_P2;PMS_P1;PMS_P2;Temp;Humidity;BMP_temperature;BMP_pressure;BME280_temperature;BME280_humidity;BME280_pressure;Samples;Min_cycle;Max_cycle;Signal;HPM_P1;HPM_P2
2023/04/18 04:06:23;;;;;;;4.97;3.25;;;7.90;99.90;;;;;;4937202;29;20237;-66
2023/04/18 04:08:48;;;;;;;3.80;3.50;;;8.00;99.90;;;;;;4941527;29;20185;-66
2023/04/18 04:11:14;;;;;;;4.03;3.70;;;8.00;99.90;;;;;;4922885;29;20760;-67
2023/04/18 04:13:39;;;;;;;3.20;2.60;;;8.00;99.90;;;;;;4938545;29;20231;-65
2023/04/18 04:16:05;;;;;;;5.33;3.90;;;8.00;99.90;;;;;;4938426;29;20197;-66
2023/04/18 04:18:31;;;;;;;5.13;4.65;;;8.00;99.90;;;;;;4938488;29;20238;-66
2023/04/18 04:20:58;;;;;;;5.20;4.37;;;8.00;99.90;;;;;;4938889;29;20197;-67
2023/04/18 04:23:26;;;;;;;4.80;4.45;;;8.00;99.90;;;;;;4938210;29;20185;-66
2023/04/18 04:25:53;;;;;;;4.60;3.67;;;8.10;99.90;;;;;;4938256;29;20224;-66
2023/04/18 04:28:22;;;;;;;4.80;4.30;;;8.10;99.90;;;;;;4938342;29;20208;-66
2023/04/18 04:30:49;;;;;;;4.30;4.03;;;8.00;99.90;;;;;;4938289;29;20269;-67
2023/04/18 04:33:19;;;;;;;4.50;3.70;;;8.10;99.90;;;;;;4937733;29;20201;-66
2023/04/18 04:35:46;;;;;;;5.53;3.60;;;8.10;99.90;;;;;;4937166;29;20279;-66
2023/04/18 04:38:14;;;;;;;4.45;3.75;;;8.10;99.90;;;;;;4938208;29;20205;-65
2023/04/18 04:40:40;;;;;;;5.03;3.90;;;8.10;99.90;;;;;;4938095;29;20275;-66
2023/04/18 04:43:05;;;;;;;5.90;3.88;;;8.20;99.90;;;;;;4937789;29;20185;-66
2023/04/18 04:45:32;;;;;;;3.00;2.60;;;8.20;99.90;;;;;;4937915;29;20201;-67
2023/04/18 04:47:58;;;;;;;5.05;4.60;;;8.10;99.90;;;;;;4937863;29;20183;-66
2023/04/18 04:50:23;;;;;;;6.38;4.55;;;8.10;99.90;;;;;;4937698;29;20165;-64
2023/04/18 04:52:49;;;;;;;5.63;4.37;;;8.20;99.90;;;;;;4937802;29;20579;-66
2023/04/18 04:55:16;;;;;;;4.33;3.93;;;8.20;99.90;;;;;;4937504;29;20193;-64
2023/04/18 04:57:43;;;;;;;5.00;3.90;;;8.20;99.90;;;;;;4937844;29;20185;-66
2023/04/18 05:00:10;;;;;;;5.65;3.85;;;8.20;99.90;;;;;;4937812;29;20285;-65
2023/04/18 05:02:35;;;;;;;3.97;3.63;;;8.20;99.90;;;;;;4937620;29;20188;-66
2023/04/18 05:05:01;;;;;;;7.10;5.00;;;8.30;99.90;;;;;;4936722;29;20228;-66
2023/04/18 05:07:26;;;;;;;3.77;3.23;;;8.30;99.90;;;;;;4936854;29;20203;-66
2023/04/18 05:09:52;;;;;;;6.63;4.10;;;8.30;99.90;;;;;;4937436;29;20640;-65
2023/04/18 05:12:18;;;;;;;4.30;3.60;;;8.30;99.90;;;;;;4937638;29;20174;-66
2023/04/18 05:14:43;;;;;;;6.70;5.90;;;8.30;99.90;;;;;;4936939;29;20560;-66
2023/04/18 05:17:09;;;;;;;3.40;2.70;;;8.40;99.90;;;;;;4936889;29;20421;-67
2023/04/18 05:19:35;;;;;;;4.80;4.40;;;8.40;99.90;;;;;;4937034;29;20303;-66
2023/04/18 05:22:00;;;;;;;4.67;4.17;;;8.50;99.90;;;;;;4937106;29;20180;-66
2023/04/18 05:24:26;;;;;;;5.00;4.20;;;8.50;99.90;;;;;;4936716;29;20236;-64
2023/04/18 05:26:52;;;;;;;5.07;4.57;;;8.50;99.90;;;;;;4936903;29;20174;-67
2023/04/18 05:29:17;;;;;;;3.73;2.80;;;8.50;99.90;;;;;;4937190;29;20580;-65
2023/04/18 05:31:43;;;;;;;3.70;3.40;;;8.60;99.90;;;;;;4936929;29;20233;-65
2023/04/18 05:34:08;;;;;;;5.80;4.33;;;8.60;99.90;;;;;;4935914;29;20205;-66
2023/04/18 05:36:34;;;;;;;3.33;3.00;;;8.50;99.90;;;;;;4936299;29;20211;-65
2023/04/18 05:38:59;;;;;;;3.70;3.20;;;8.50;99.90;;;;;;4936257;29;20178;-66
2023/04/18 05:41:25;;;;;;;6.07;3.27;;;8.50;99.90;;;;;;4936745;29;20176;-65
2023/04/18 05:43:51;;;;;;;4.60;4.20;;;8.50;99.90;;;;;;4935816;29;20216;-68
2023/04/18 05:46:16;;;;;;;5.10;4.23;;;8.50;99.90;;;;;;4936236;29;20220;-66
2023/04/18 05:48:42;;;;;;;5.87;4.37;;;8.50;99.90;;;;;;4918111;29;20181;-64
2023/04/18 05:51:07;;;;;;;4.33;3.60;;;8.50;99.90;;;;;;4936243;29;20185;-66
2023/04/18 05:53:33;;;;;;;5.80;4.80;;;8.60;99.90;;;;;;4918471;29;20344;-66
2023/04/18 05:55:59;;;;;;;4.70;4.30;;;8.60;99.90;;;;;;4917418;29;20313;-67
2023/04/18 05:58:24;;;;;;;4.33;3.43;;;8.60;99.90;;;;;;4917924;29;20190;-67
2023/04/18 06:00:52;;;;;;;5.83;3.77;;;8.70;99.90;;;;;;4924801;29;20174;-69
2023/04/18 06:03:17;;;;;;;4.40;3.17;;;8.70;99.90;;;;;;4919181;29;20240;-68
2023/04/18 06:05:43;;;;;;;4.27;3.87;;;8.80;99.90;;;;;;4919003;29;20212;-68
2023/04/18 06:08:08;;;;;;;4.00;3.60;;;8.90;99.90;;;;;;4937013;29;20204;-67
2023/04/18 06:10:34;;;;;;;4.53;3.83;;;9.00;99.90;;;;;;4936812;29;20212;-67
2023/04/18 06:13:00;;;;;;;4.67;4.17;;;9.00;99.90;;;;;;4937442;29;20264;-69
2023/04/18 06:15:25;;;;;;;3.90;3.60;;;9.00;99.90;;;;;;4938952;29;20244;-67
2023/04/18 06:17:51;;;;;;;5.47;4.83;;;9.00;99.90;;;;;;4920028;29;20524;-68
2023/04/18 06:20:17;;;;;;;4.40;3.67;;;9.10;99.90;;;;;;4937120;29;20169;-68
2023/04/18 06:22:42;;;;;;;4.33;3.40;;;9.10;99.90;;;;;;4937114;29;20232;-67
2023/04/18 06:25:08;;;;;;;5.80;5.23;;;9.20;99.90;;;;;;4918562;29;20205;-68
2023/04/18 06:27:35;;;;;;;4.50;4.10;;;9.20;99.90;;;;;;4918411;29;20279;-68
2023/04/18 06:30:01;;;;;;;4.57;4.18;;;9.20;99.90;;;;;;4936017;29;20552;-67
2023/04/18 06:32:27;;;;;;;3.00;2.80;;;9.30;99.90;;;;;;4936248;29;20269;-68
2023/04/18 06:34:52;;;;;;;5.37;3.90;;;9.20;99.90;;;;;;4935646;29;20285;-67
2023/04/18 06:37:18;;;;;;;3.63;3.33;;;9.30;99.90;;;;;;4935852;29;20196;-67
2023/04/18 06:39:43;;;;;;;5.20;3.80;;;9.40;99.90;;;;;;4936010;29;20170;-67
2023/04/18 06:42:09;;;;;;;5.23;3.60;;;9.40;99.90;;;;;;4935372;29;20536;-68
2023/04/18 06:44:35;;;;;;;6.17;4.07;;;9.50;99.90;;;;;;4918362;29;20291;-67
2023/04/18 06:47:01;;;;;;;5.00;4.50;;;9.50;99.90;;;;;;4936106;29;20333;-68
2023/04/18 06:49:27;;;;;;;4.57;3.65;;;9.60;99.90;;;;;;4935912;29;20687;-68
2023/04/18 06:51:53;;;;;;;4.93;4.20;;;9.60;99.90;;;;;;4936560;29;20185;-69
2023/04/18 06:54:18;;;;;;;4.07;2.60;;;9.60;99.90;;;;;;4935315;29;20209;-68
2023/04/18 06:56:44;;;;;;;3.30;3.10;;;9.60;99.90;;;;;;4935500;29;20185;-68
2023/04/18 06:59:10;;;;;;;4.67;4.27;;;9.60;99.90;;;;;;4935429;29;20584;-68
2023/04/18 07:01:42;;;;;;;4.47;4.00;;;9.70;99.90;;;;;;4935802;29;20637;-67
2023/04/18 07:04:08;;;;;;;3.70;3.40;;;9.60;99.90;;;;;;4935460;29;20671;-67
2023/04/18 07:06:35;;;;;;;6.37;3.43;;;9.70;99.90;;;;;;4935151;29;20323;-68
2023/04/18 07:09:00;;;;;;;3.90;2.75;;;9.80;99.90;;;;;;4930892;29;20432;-70
2023/04/18 07:11:27;;;;;;;4.90;4.50;;;9.80;99.90;;;;;;4937596;29;20185;-68
2023/04/18 07:13:52;;;;;;;4.50;3.63;;;9.80;99.90;;;;;;4936490;29;20461;-67
2023/04/18 07:16:19;;;;;;;5.00;3.97;;;9.90;99.90;;;;;;4935100;29;20174;-67
2023/04/18 07:18:45;;;;;;;3.47;3.17;;;9.90;99.90;;;;;;4931237;29;20185;-69
2023/04/18 07:21:11;;;;;;;4.93;4.47;;;9.90;99.90;;;;;;4923282;29;20175;-69
2023/04/18 07:23:37;;;;;;;6.00;4.50;;;9.90;99.90;;;;;;4916350;29;20206;-67
2023/04/18 07:26:04;;;;;;;4.17;3.77;;;9.90;99.90;;;;;;4901980;29;20614;-69
2023/04/18 07:28:31;;;;;;;3.15;2.90;;;10.00;99.90;;;;;;4935489;29;20421;-69
2023/04/18 07:30:57;;;;;;;4.78;3.72;;;10.00;99.90;;;;;;4938483;29;20244;-69
2023/04/18 07:33:24;;;;;;;3.85;3.22;;;9.90;99.90;;;;;;4938101;29;20229;-70
2023/04/18 07:35:50;;;;;;;4.40;3.95;;;9.90;99.90;;;;;;4938764;29;20698;-69
2023/04/18 07:38:16;;;;;;;3.92;3.58;;;9.90;99.90;;;;;;4932082;29;20178;-69
2023/04/18 07:40:43;;;;;;;4.67;4.17;;;9.90;99.90;;;;;;4936830;29;20236;-68
2023/04/18 07:43:09;;;;;;;3.67;3.35;;;9.90;99.90;;;;;;4938159;29;20257;-70
2023/04/18 07:45:37;;;;;;;4.23;3.83;;;9.90;99.90;;;;;;4921279;29;20372;-69
2023/04/18 07:48:03;;;;;;;4.07;3.40;;;9.90;99.90;;;;;;4938809;29;20187;-67
2023/04/18 07:50:28;;;;;;;6.35;3.88;;;10.00;99.90;;;;;;4938768;29;20188;-69
2023/04/18 07:52:54;;;;;;;4.53;4.13;;;10.10;99.90;;;;;;4924350;29;20203;-67
2023/04/18 07:55:20;;;;;;;3.70;3.40;;;10.20;99.90;;;;;;4919177;29;20206;-68
2023/04/18 07:57:49;;;;;;;4.23;3.90;;;10.40;99.90;;;;;;4919618;29;20348;-68
2023/04/18 08:00:18;;;;;;;4.87;4.47;;;10.60;99.90;;;;;;4932800;29;20541;-69
2023/04/18 08:02:44;;;;;;;4.47;3.90;;;10.70;99.90;;;;;;4921613;29;20904;-69
2023/04/18 08:05:10;;;;;;;5.80;4.63;;;10.90;99.90;;;;;;4938443;29;20463;-69
2023/04/18 08:07:36;;;;;;;3.70;3.23;;;11.10;99.90;;;;;;4938207;29;20457;-68
2023/04/18 08:10:02;;;;;;;6.00;5.13;;;11.30;99.90;;;;;;4938184;29;20431;-71
2023/04/18 08:12:28;;;;;;;3.83;3.53;;;11.40;99.90;;;;;;4938119;29;20187;-69
2023/04/18 08:14:53;;;;;;;5.30;4.23;;;11.60;99.90;;;;;;4937178;29;20935;-66
2023/04/18 08:17:19;;;;;;;6.07;3.70;;;11.70;99.90;;;;;;4938204;29;20165;-70
2023/04/18 08:19:45;;;;;;;3.77;3.17;;;12.00;99.90;;;;;;4920933;29;20251;-67
2023/04/18 08:22:10;;;;;;;5.83;5.00;;;12.10;99.90;;;;;;4919196;29;20169;-68
2023/04/18 08:24:39;;;;;;;4.30;3.60;;;12.30;99.90;;;;;;4918760;29;20272;-68
2023/04/18 08:27:05;;;;;;;4.90;4.17;;;12.70;99.90;;;;;;4930516;29;20406;-68
2023/04/18 08:29:31;;;;;;;4.43;3.80;;;13.10;99.90;;;;;;4919027;29;20381;-68
2023/04/18 08:31:57;;;;;;;6.37;5.77;;;13.20;99.90;;;;;;4919146;29;20391;-69
2023/04/18 08:34:23;;;;;;;7.23;5.27;;;13.20;99.90;;;;;;4918421;29;20466;-69
2023/04/18 08:36:51;;;;;;;5.97;3.90;;;13.30;99.90;;;;;;4932978;29;20180;-70
2023/04/18 08:39:17;;;;;;;4.37;4.07;;;13.20;99.90;;;;;;4937533;29;20820;-69
2023/04/18 08:41:48;;;;;;;3.73;3.43;;;13.20;99.90;;;;;;4924492;29;20396;-69
2023/04/18 08:44:13;;;;;;;5.80;4.97;;;13.10;99.90;;;;;;4923399;29;20193;-67
2023/04/18 08:46:39;;;;;;;5.87;4.63;;;13.00;99.90;;;;;;4937437;29;20815;-70
2023/04/18 08:49:05;;;;;;;4.47;3.67;;;13.00;99.90;;;;;;4937247;29;21753;-67
2023/04/18 08:51:31;;;;;;;4.13;3.80;;;13.10;99.90;;;;;;4937175;29;20181;-69
2023/04/18 08:54:03;;;;;;;4.53;4.13;;;13.00;99.90;;;;;;4936781;29;20200;-69
2023/04/18 08:56:29;;;;;;;4.43;4.03;;;12.80;99.90;;;;;;4933772;29;20421;-70
2023/04/18 08:58:58;;;;;;;4.10;3.57;;;12.60;99.90;;;;;;4937559;29;20508;-68
2023/04/18 09:01:55;;;;;;;3.70;3.27;;;12.40;99.90;;;;;;4937434;29;20418;-69
2023/04/18 09:04:39;;;;;;;4.87;4.27;;;12.30;99.90;;;;;;4936753;29;20442;-69
2023/04/18 09:07:07;;;;;;;4.07;3.73;;;12.20;99.90;;;;;;4930287;29;20451;-68
2023/04/18 09:09:46;;;;;;;3.60;3.30;;;12.10;99.90;;;;;;4937611;29;20387;-69
2023/04/18 09:12:21;;;;;;;3.50;3.20;;;12.20;99.90;;;;;;4937143;29;20427;-67
2023/04/18 09:14:49;;;;;;;5.33;3.80;;;12.20;99.90;;;;;;4936522;29;20445;-68
2023/04/18 09:17:33;;;;;;;4.40;3.53;;;12.20;99.90;;;;;;4937575;29;20409;-69
2023/04/18 09:20:00;;;;;;;5.13;4.63;;;12.20;99.90;;;;;;4933307;29;20550;-68
2023/04/18 09:22:51;;;;;;;3.87;3.57;;;12.20;99.90;;;;;;4930866;29;20424;-68
2023/04/18 09:25:26;;;;;;;3.97;3.47;;;12.30;99.90;;;;;;4917571;29;20438;-68
2023/04/18 09:27:52;;;;;;;4.60;4.07;;;12.30;99.90;;;;;;4937076;29;20748;-69
2023/04/18 09:30:39;;;;;;;8.17;4.67;;;12.40;99.90;;;;;;4936870;29;20420;-69
2023/04/18 09:33:08;;;;;;;4.70;4.17;;;12.40;99.90;;;;;;4934748;29;20467;-71
2023/04/18 09:35:35;;;;;;;4.63;3.40;;;12.50;99.90;;;;;;4936752;29;20436;-69
2023/04/18 09:38:01;;;;;;;5.87;4.77;;;12.70;99.90;;;;;;4936782;29;20416;-68
2023/04/18 09:40:27;;;;;;;3.83;3.47;;;12.80;99.90;;;;;;4936519;29;20945;-71
2023/04/18 09:42:53;;;;;;;5.60;4.03;;;12.90;99.90;;;;;;4936081;29;20187;-68
2023/04/18 09:45:20;;;;;;;6.10;4.93;;;13.00;99.90;;;;;;4935825;29;20687;-68
2023/04/18 09:47:45;;;;;;;4.17;3.80;;;12.90;99.90;;;;;;4918260;29;20404;-67
2023/04/18 09:50:11;;;;;;;5.20;3.60;;;13.00;99.90;;;;;;4927957;29;20403;-70
2023/04/18 09:52:39;;;;;;;3.33;3.03;;;13.10;99.90;;;;;;4934804;29;20232;-69
2023/04/18 09:55:10;;;;;;;4.57;4.17;;;13.30;99.90;;;;;;4927290;29;20702;-68
2023/04/18 09:57:40;;;;;;;3.87;3.57;;;13.40;99.90;;;;;;4918911;29;20468;-70
2023/04/18 10:00:16;;;;;;;3.87;3.50;;;13.60;99.90;;;;;;4919246;29;20403;-68
2023/04/18 10:03:02;;;;;;;3.73;3.30;;;13.80;99.90;;;;;;4935165;29;20435;-68
2023/04/18 10:05:34;;;;;;;3.33;3.03;;;14.00;99.90;;;;;;4934574;29;20520;-68
2023/04/18 10:08:00;;;;;;;4.30;3.90;;;14.20;99.90;;;;;;4929396;29;20422;-68
2023/04/18 10:10:26;;;;;;;3.57;3.27;;;14.40;99.90;;;;;;4931053;29;20446;-65
2023/04/18 10:12:56;;;;;;;3.37;3.10;;;14.50;99.90;;;;;;4935760;29;20478;-65
2023/04/18 10:15:24;;;;;;;3.83;3.43;;;14.50;99.90;;;;;;4936009;29;20205;-66
2023/04/18 10:18:00;;;;;;;3.97;3.60;;;14.60;99.90;;;;;;4936452;29;20473;-65
2023/04/18 10:20:30;;;;;;;4.17;3.83;;;14.70;99.90;;;;;;4918505;29;20431;-69
2023/04/18 10:22:58;;;;;;;4.47;4.07;;;14.70;99.90;;;;;;4936055;29;20426;-66
2023/04/18 10:25:38;;;;;;;4.07;3.67;;;14.70;99.90;;;;;;4935523;29;20417;-68
2023/04/18 10:28:05;;;;;;;4.33;3.77;;;14.80;99.90;;;;;;4935848;29;20896;-67
2023/04/18 10:30:40;;;;;;;3.50;3.20;;;14.90;99.90;;;;;;4935871;29;20423;-67
2023/04/18 10:33:26;;;;;;;4.00;3.70;;;14.90;99.90;;;;;;4935762;29;20428;-67
2023/04/18 10:36:13;;;;;;;3.97;3.67;;;14.80;99.90;;;;;;4922176;29;20501;-66
2023/04/18 10:38:49;;;;;;;3.40;2.90;;;14.70;99.90;;;;;;4934108;29;20849;-67
2023/04/18 10:41:26;;;;;;;3.77;3.40;;;14.70;99.90;;;;;;4935730;29;20436;-69
2023/04/18 10:44:07;;;;;;;3.07;2.83;;;14.70;99.90;;;;;;4935648;29;20805;-67
2023/04/18 10:46:36;;;;;;;2.93;2.67;;;14.70;99.90;;;;;;4935970;29;20449;-70
2023/04/18 10:49:14;;;;;;;3.13;2.90;;;14.70;99.90;;;;;;4927332;29;20397;-69
2023/04/18 10:51:40;;;;;;;2.90;2.70;;;14.70;99.90;;;;;;4917086;29;20382;-68
2023/04/18 10:54:11;;;;;;;2.43;2.23;;;14.60;99.90;;;;;;4916535;29;20497;-68
2023/04/18 10:56:38;;;;;;;3.17;2.53;;;14.50;99.90;;;;;;4932555;29;20177;-67
2023/04/18 10:59:04;;;;;;;3.50;2.57;;;14.40;99.90;;;;;;4935767;29;20783;-66
2023/04/18 11:01:31;;;;;;;5.20;3.00;;;14.30;99.90;;;;;;4935412;29;20410;-69
2023/04/18 11:03:58;;;;;;;2.63;2.43;;;14.30;99.90;;;;;;4933999;29;20403;-64
2023/04/18 11:06:27;;;;;;;2.67;2.47;;;14.30;99.90;;;;;;4931857;29;20433;-67
2023/04/18 11:09:23;;;;;;;2.67;2.47;;;14.30;99.90;;;;;;4908540;29;20393;-65
2023/04/18 11:12:09;;;;;;;3.73;3.43;;;14.40;99.90;;;;;;4925545;29;20396;-70
2023/04/18 11:14:47;;;;;;;4.93;2.77;;;14.50;99.90;;;;;;4936620;29;20427;-68
2023/04/18 11:17:19;;;;;;;2.40;2.20;;;14.40;99.90;;;;;;4936507;29;20380;-67
2023/04/18 11:19:45;;;;;;;3.90;3.30;;;14.30;99.90;;;;;;4938157;29;20765;-66
2023/04/18 11:22:11;;;;;;;2.63;2.33;;;14.20;99.90;;;;;;4936644;29;20757;-67
2023/04/18 11:24:37;;;;;;;3.13;2.30;;;14.10;99.90;;;;;;4938651;29;20445;-67
2023/04/18 11:27:04;;;;;;;2.20;2.00;;;14.00;99.90;;;;;;4939439;29;20434;-67
2023/04/18 11:29:29;;;;;;;2.97;2.53;;;13.90;99.90;;;;;;4938927;29;20751;-67
2023/04/18 11:31:55;;;;;;;2.87;2.67;;;13.90;99.90;;;;;;4938602;29;20406;-68
2023/04/18 11:34:21;;;;;;;4.13;3.20;;;13.90;99.90;;;;;;4937422;29;20214;-67
2023/04/18 11:36:50;;;;;;;1.90;1.80;;;13.90;99.90;;;;;;4921980;29;20180;-67
2023/04/18 11:39:17;;;;;;;3.70;3.40;;;14.00;99.90;;;;;;4938402;29;20183;-68
2023/04/18 11:41:49;;;;;;;3.17;2.90;;;14.10;99.90;;;;;;4939035;29;20468;-67
2023/04/18 11:44:34;;;;;;;3.00;2.47;;;14.10;99.90;;;;;;4938806;29;20447;-65
2023/04/18 11:46:59;;;;;;;3.40;3.10;;;14.10;99.90;;;;;;4923419;29;20437;-66
2023/04/18 11:49:26;;;;;;;2.40;2.30;;;14.20;99.90;;;;;;4938785;29;20406;-67
2023/04/18 11:51:52;;;;;;;2.60;2.20;;;14.30;99.90;;;;;;4938239;29;20189;-66
2023/04/18 11:54:37;;;;;;;2.87;2.40;;;14.20;99.90;;;;;;4937697;29;20438;-67
2023/04/18 11:57:03;;;;;;;3.20;2.90;;;14.20;99.90;;;;;;4937580;29;20201;-66
2023/04/18 11:59:29;;;;;;;1.87;1.83;;;14.20;99.90;;;;;;4938643;29;20413;-66
2023/04/18 12:02:02;;;;;;;2.90;2.50;;;14.30;99.90;;;;;;4930316;29;20929;-66
2023/04/18 12:04:28;;;;;;;3.10;2.80;;;14.40;99.90;;;;;;4932365;29;20220;-66
2023/04/18 12:06:54;;;;;;;5.10;2.60;;;14.60;99.90;;;;;;4934343;29;20947;-67
2023/04/18 12:09:23;;;;;;;2.63;2.10;;;14.70;99.90;;;;;;4919727;29;20220;-67
2023/04/18 12:11:59;;;;;;;2.60;2.13;;;14.80;99.90;;;;;;4929259;29;20403;-66
2023/04/18 12:14:26;;;;;;;2.43;2.27;;;14.90;99.90;;;;;;4937510;29;20471;-66
2023/04/18 12:16:52;;;;;;;2.73;2.10;;;15.10;99.90;;;;;;4937083;29;20405;-72
2023/04/18 12:19:19;;;;;;;1.87;1.70;;;15.20;99.90;;;;;;4921243;29;20444;-65
2023/04/18 12:22:15;;;;;;;2.90;2.53;;;15.30;99.90;;;;;;4933390;29;20253;-69
2023/04/18 12:24:42;;;;;;;2.47;2.27;;;15.50;99.90;;;;;;4908752;29;20461;-69
2023/04/18 12:27:07;;;;;;;1.60;1.50;;;15.70;99.90;;;;;;4919365;29;20740;-65
2023/04/18 12:29:33;;;;;;;3.03;2.83;;;15.80;99.90;;;;;;4936049;29;20385;-65
2023/04/18 12:31:59;;;;;;;4.47;2.00;;;15.90;99.90;;;;;;4937584;29;20221;-64
2023/04/18 12:34:24;;;;;;;2.87;2.27;;;16.00;99.90;;;;;;4937519;29;20226;-66
2023/04/18 12:36:51;;;;;;;2.17;1.97;;;16.10;99.50;;;;;;4920066;29;20671;-67
2023/04/18 12:39:16;;;;;;;1.77;1.67;;;16.20;99.20;;;;;;4938016;29;20184;-66
2023/04/18 12:41:42;;;;;;;2.30;2.10;;;16.10;99.20;;;;;;4937489;29;20798;-65
2023/04/18 12:44:08;;;;;;;2.27;2.07;;;16.10;99.10;;;;;;4937201;29;20202;-65
2023/04/18 12:46:34;;;;;;;2.53;2.33;;;16.10;99.10;;;;;;4920767;29;20792;-65
2023/04/18 12:48:59;;;;;;;3.50;2.40;;;16.00;99.40;;;;;;4937493;29;20185;-66
2023/04/18 12:51:28;;;;;;;1.80;1.70;;;15.90;99.20;;;;;;4930082;29;20430;-64
2023/04/18 12:53:53;;;;;;;2.23;2.03;;;15.80;98.90;;;;;;4916798;29;20202;-66
2023/04/18 12:56:19;;;;;;;2.47;1.97;;;15.70;99.00;;;;;;4917348;29;21007;-64
2023/04/18 12:58:45;;;;;;;1.50;1.40;;;15.70;99.10;;;;;;4917500;29;20190;-65
2023/04/18 13:01:12;;;;;;;2.20;2.00;;;15.70;99.40;;;;;;4917079;29;20497;-65
2023/04/18 13:03:38;;;;;;;2.30;2.20;;;15.80;99.00;;;;;;4917629;29;20175;-64
2023/04/18 13:06:04;;;;;;;2.10;1.90;;;15.90;98.70;;;;;;4917605;29;20421;-65
2023/04/18 13:08:30;;;;;;;2.17;1.97;;;16.00;98.50;;;;;;4918541;29;20266;-65
2023/04/18 13:10:57;;;;;;;2.90;2.70;;;16.10;98.20;;;;;;4918392;29;20446;-66
2023/04/18 13:13:23;;;;;;;1.57;1.47;;;16.00;98.10;;;;;;4918074;29;20225;-66
2023/04/18 13:15:49;;;;;;;1.77;1.67;;;16.00;98.40;;;;;;4933685;29;20485;-65
2023/04/18 13:18:15;;;;;;;2.20;2.03;;;16.00;98.50;;;;;;4937132;29;20171;-64
2023/04/18 13:20:40;;;;;;;2.13;2.03;;;16.00;98.50;;;;;;4937184;29;20413;-65
2023/04/18 13:23:06;;;;;;;1.93;1.83;;;16.00;98.50;;;;;;4937070;29;20517;-65
2023/04/18 13:25:32;;;;;;;2.53;2.33;;;15.90;97.80;;;;;;4937003;29;20209;-64
2023/04/18 13:27:59;;;;;;;3.17;1.83;;;15.80;98.10;;;;;;4936973;29;20178;-66
2023/04/18 13:30:25;;;;;;;1.60;1.50;;;15.80;98.20;;;;;;4936761;29;20215;-65
2023/04/18 13:32:50;;;;;;;2.87;2.20;;;15.70;98.30;;;;;;4936973;29;20414;-65
2023/04/18 13:35:16;;;;;;;2.10;2.00;;;15.70;98.00;;;;;;4936487;29;20204;-65
2023/04/18 13:37:41;;;;;;;1.60;1.50;;;15.80;98.30;;;;;;4936869;29;20603;-65
2023/04/18 13:40:08;;;;;;;2.10;2.00;;;15.90;98.40;;;;;;4909357;29;20606;-65
2023/04/18 13:42:35;;;;;;;2.30;2.10;;;16.00;98.40;;;;;;4917753;29;20265;-66
2023/04/18 13:45:02;;;;;;;2.10;2.00;;;16.10;97.80;;;;;;4917374;29;20571;-63
2023/04/18 13:47:28;;;;;;;1.60;1.50;;;16.00;97.50;;;;;;4917693;29;20427;-65
2023/04/18 13:49:54;;;;;;;2.47;2.23;;;15.90;97.60;;;;;;4917951;29;20421;-66
2023/04/18 13:52:20;;;;;;;2.87;1.53;;;15.80;97.90;;;;;;4917583;29;20465;-66
2023/04/18 13:54:46;;;;;;;3.60;2.77;;;15.80;98.30;;;;;;4917331;29;20504;-66
2023/04/18 13:57:13;;;;;;;1.97;1.70;;;15.80;98.00;;;;;;4918023;29;20202;-65
2023/04/18 13:59:39;;;;;;;2.17;1.97;;;15.80;98.00;;;;;;4932429;29;20442;-65
2023/04/18 14:02:06;;;;;;;2.60;1.80;;;15.80;97.80;;;;;;4936513;29;20920;-64
2023/04/18 14:04:31;;;;;;;2.57;2.37;;;15.70;97.60;;;;;;4935976;29;20465;-64
2023/04/18 14:06:57;;;;;;;2.23;2.03;;;15.50;97.80;;;;;;4936273;29;20516;-65
2023/04/18 14:09:22;;;;;;;2.60;2.40;;;15.50;98.20;;;;;;4936504;29;20566;-65
2023/04/18 14:11:49;;;;;;;2.03;1.90;;;15.60;98.10;;;;;;4936657;29;20193;-64
2023/04/18 14:14:15;;;;;;;1.70;1.60;;;15.60;97.80;;;;;;4935425;29;20214;-65
2023/04/18 14:16:41;;;;;;;2.20;2.00;;;15.60;97.70;;;;;;4936123;29;20429;-64
2023/04/18 14:19:06;;;;;;;2.90;1.80;;;15.60;97.70;;;;;;4936151;29;20173;-66
2023/04/18 14:21:32;;;;;;;1.73;1.63;;;15.60;97.50;;;;;;4936291;29;20177;-65
2023/04/18 14:23:58;;;;;;;2.07;1.97;;;15.70;97.00;;;;;;4935781;29;20188;-65
2023/04/18 14:26:23;;;;;;;1.67;1.60;;;15.60;97.10;;;;;;4936238;29;20216;-65
2023/04/18 14:28:49;;;;;;;1.70;1.60;;;15.60;97.10;;;;;;4918243;29;20511;-66
2023/04/18 14:31:15;;;;;;;2.77;1.83;;;15.60;97.10;;;;;;4917256;29;20182;-64
2023/04/18 14:33:41;;;;;;;2.17;2.03;;;15.60;97.30;;;;;;4916781;29;20202;-65
2023/04/18 14:36:08;;;;;;;3.63;2.23;;;15.60;97.10;;;;;;4916892;29;20241;-64
2023/04/18 14:38:33;;;;;;;3.27;2.50;;;15.60;97.20;;;;;;4916454;29;20808;-66
2023/04/18 14:40:59;;;;;;;1.60;1.50;;;15.70;97.30;;;;;;4917049;29;20422;-65
2023/04/18 14:43:26;;;;;;;2.57;2.30;;;15.70;97.30;;;;;;4916663;29;20179;-65
2023/04/18 14:45:51;;;;;;;2.30;2.10;;;15.70;97.00;;;;;;4899768;29;20466;-64
2023/04/18 14:48:17;;;;;;;2.43;2.23;;;15.80;97.00;;;;;;4917116;29;20415;-65
2023/04/18 14:50:43;;;;;;;2.50;2.30;;;15.80;97.20;;;;;;4899943;29;20183;-64
2023/04/18 14:53:09;;;;;;;2.10;2.00;;;15.90;97.50;;;;;;4916419;29;20207;-65
2023/04/18 14:55:34;;;;;;;1.93;1.80;;;15.90;97.40;;;;;;4916902;29;20195;-65
2023/04/18 14:58:00;;;;;;;2.57;2.37;;;15.90;97.30;;;;;;4931742;29;20791;-66
2023/04/18 15:00:27;;;;;;;2.80;2.30;;;16.00;97.50;;;;;;4935904;29;20201;-65
2023/04/18 15:02:53;;;;;;;2.90;2.57;;;15.90;97.40;;;;;;4935943;29;20215;-64
2023/04/18 15:05:22;;;;;;;1.70;1.57;;;16.00;97.40;;;;;;4935248;29;20462;-65
2023/04/18 15:07:50;;;;;;;1.90;1.80;;;16.00;97.50;;;;;;4935828;29;20951;-65
2023/04/18 15:10:16;;;;;;;1.90;1.80;;;16.10;97.50;;;;;;4935667;29;20430;-66
2023/04/18 15:12:42;;;;;;;2.30;2.10;;;16.10;97.00;;;;;;4918113;29;20405;-66
2023/04/18 15:15:07;;;;;;;2.33;2.00;;;16.10;97.00;;;;;;4935104;29;20494;-66
2023/04/18 15:17:33;;;;;;;2.10;1.90;;;16.10;96.70;;;;;;4926674;29;20438;-65
2023/04/18 15:19:59;;;;;;;2.13;2.03;;;16.10;96.80;;;;;;4916638;29;20730;-65
2023/04/18 15:22:24;;;;;;;1.50;1.43;;;16.00;96.10;;;;;;4916677;29;20270;-66
2023/04/18 15:24:50;;;;;;;1.90;1.80;;;15.90;96.40;;;;;;4916187;29;20684;-65
2023/04/18 15:27:16;;;;;;;1.67;1.57;;;15.80;96.60;;;;;;4916704;29;20261;-65
2023/04/18 15:29:41;;;;;;;1.43;1.33;;;15.70;96.50;;;;;;4916589;29;20664;-65
2023/04/18 15:32:08;;;;;;;1.63;1.53;;;15.60;96.60;;;;;;4899297;29;20191;-65
2023/04/18 15:34:34;;;;;;;1.77;1.67;;;15.50;96.90;;;;;;4915867;29;20214;-66
2023/04/18 15:37:01;;;;;;;4.63;2.80;;;15.30;97.60;;;;;;4916574;29;20392;-64
2023/04/18 15:39:26;;;;;;;3.00;2.80;;;15.20;98.20;;;;;;4916705;29;20538;-66
2023/04/18 15:41:53;;;;;;;1.93;1.83;;;15.10;98.50;;;;;;4916498;29;20842;-65
2023/04/18 15:44:21;;;;;;;2.20;2.10;;;15.00;98.60;;;;;;4916046;29;20198;-66
2023/04/18 15:46:48;;;;;;;2.57;2.40;;;14.90;98.90;;;;;;4930032;29;20569;-66
2023/04/18 15:49:14;;;;;;;2.43;2.23;;;14.70;98.90;;;;;;4935592;29;20504;-65
2023/04/18 15:51:39;;;;;;;2.10;2.00;;;14.70;99.20;;;;;;4938610;29;20975;-64
2023/04/18 15:54:05;;;;;;;2.33;2.13;;;14.70;99.20;;;;;;4938395;29;20220;-67
2023/04/18 15:56:31;;;;;;;1.70;1.60;;;14.70;99.00;;;;;;4921661;29;20184;-66
2023/04/18 15:58:58;;;;;;;1.80;1.70;;;14.70;99.20;;;;;;4938744;29;20252;-65
2023/04/18 16:01:23;;;;;;;3.13;2.40;;;14.60;99.30;;;;;;4925694;29;20588;-65
2023/04/18 16:03:49;;;;;;;2.70;2.50;;;14.60;99.50;;;;;;4919294;29;20458;-65
2023/04/18 16:06:15;;;;;;;2.83;2.53;;;14.60;99.60;;;;;;4902503;29;20557;-64
2023/04/18 16:08:41;;;;;;;2.20;2.10;;;14.60;99.60;;;;;;4920500;29;20190;-65
2023/04/18 16:11:07;;;;;;;2.70;2.50;;;14.50;99.50;;;;;;4938743;29;20445;-66
2023/04/18 16:13:35;;;;;;;4.63;2.60;;;14.50;99.40;;;;;;4938133;29;20563;-65
2023/04/18 16:16:03;;;;;;;1.83;1.73;;;14.50;99.40;;;;;;4938605;29;20473;-66
2023/04/18 16:18:29;;;;;;;2.60;2.40;;;14.40;99.60;;;;;;4921257;29;20787;-66
2023/04/18 16:20:55;;;;;;;3.33;2.20;;;14.30;99.60;;;;;;4920161;29;20437;-65
2023/04/18 16:23:20;;;;;;;3.93;2.50;;;14.30;99.70;;;;;;4934909;29;20507;-64
2023/04/18 16:25:46;;;;;;;3.57;2.67;;;14.30;99.90;;;;;;4938072;29;20201;-66
2023/04/18 16:28:12;;;;;;;2.93;2.73;;;14.30;99.90;;;;;;4938017;29;20524;-64
2023/04/18 16:30:37;;;;;;;2.33;2.13;;;14.30;99.90;;;;;;4938512;29;20702;-65
2023/04/18 16:33:03;;;;;;;2.07;1.90;;;14.20;99.90;;;;;;4937813;29;20218;-64
2023/04/18 16:35:29;;;;;;;3.03;2.83;;;14.20;99.90;;;;;;4937784;29;20199;-65
2023/04/18 16:37:55;;;;;;;2.23;2.03;;;14.20;99.90;;;;;;4937890;29;20178;-67
2023/04/18 16:40:20;;;;;;;1.93;1.80;;;14.20;99.90;;;;;;4937519;29;20188;-64
2023/04/18 16:42:46;;;;;;;2.40;2.30;;;14.20;99.90;;;;;;4933332;29;20177;-64
2023/04/18 16:45:11;;;;;;;2.00;1.90;;;14.10;99.90;;;;;;4918287;29;20201;-67
2023/04/18 16:47:37;;;;;;;2.43;2.27;;;14.00;99.90;;;;;;4918166;29;20181;-65
2023/04/18 16:50:03;;;;;;;2.23;2.13;;;14.00;99.90;;;;;;4901635;29;20174;-68
2023/04/18 16:52:30;;;;;;;2.70;2.30;;;14.00;99.90;;;;;;4919032;29;20185;-66
2023/04/18 16:54:55;;;;;;;3.07;2.80;;;14.00;99.90;;;;;;4918103;29;20820;-69
2023/04/18 16:57:21;;;;;;;3.50;3.20;;;14.00;99.90;;;;;;4918850;29;20502;-67